sensor_id;sensor_type;location;lat;lon;timestamp;pressure;altitude;pressure_sealevel;temperature;humidity
68807;BME280;55800;54.272;18.558;2023-11-22T00:00:21;101977.38;;;-1.10;85.67
68807;BME280;55800;54.272;18.558;2023-11-22T00:03:10;101979.06;;;-1.12;85.74
68807;BME280;55800;54.272;18.558;2023-11-22T00:05:41;101984.28;;;-1.14;85.49
68807;BME280;55800;54.272;18.558;2023-11-22T00:08:11;101991.19;;;-1.17;85.59
68807;BME280;55800;54.272;18.558;2023-11-22T00:10:40;101992.91;;;-1.18;85.48
68807;BME280;55800;54.272;18.558;2023-11-22T00:13:10;101994.63;;;-1.20;85.55
68807;BME280;55800;54.272;18.558;2023-11-22T00:15:39;101999.84;;;-1.21;85.41
68807;BME280;55800;54.272;18.558;2023-11-22T00:18:08;101991.97;;;-1.21;85.45
68807;BME280;55800;54.272;18.558;2023-11-22T00:20:38;101998.97;;;-1.20;85.66
68807;BME280;55800;54.272;18.558;2023-11-22T00:23:09;102002.53;;;-1.18;86.00
68807;BME280;55800;54.272;18.558;2023-11-22T00:25:38;102008.63;;;-1.19;85.75
68807;BME280;55800;54.272;18.558;2023-11-22T00:28:08;102006.81;;;-1.22;85.85
68807;BME280;55800;54.272;18.558;2023-11-22T00:30:37;102007.78;;;-1.18;86.06
68807;BME280;55800;54.272;18.558;2023-11-22T00:33:08;102012.25;;;-1.14;86.07
68807;BME280;55800;54.272;18.558;2023-11-22T00:35:37;102014.88;;;-1.14;86.18
68807;BME280;55800;54.272;18.558;2023-11-22T00:38:08;102013.28;;;-1.09;86.12
68807;BME280;55800;54.272;18.558;2023-11-22T00:40:37;102010.69;;;-1.08;86.28
68807;BME280;55800;54.272;18.558;2023-11-22T00:43:06;102013.28;;;-1.09;86.46
68807;BME280;55800;54.272;18.558;2023-11-22T00:45:36;102008.13;;;-1.06;86.51
68807;BME280;55800;54.272;18.558;2023-11-22T00:48:06;102014.31;;;-1.04;86.32
68807;BME280;55800;54.272;18.558;2023-11-22T00:50:35;102015.22;;;-1.02;86.47
68807;BME280;55800;54.272;18.558;2023-11-22T00:53:04;102010.94;;;-0.99;86.60
68807;BME280;55800;54.272;18.558;2023-11-22T00:55:35;102017.09;;;-0.98;86.54
68807;BME280;55800;54.272;18.558;2023-11-22T00:58:05;102011.88;;;-0.97;86.61
68807;BME280;55800;54.272;18.558;2023-11-22T01:00:35;102010.19;;;-0.95;86.70
68807;BME280;55800;54.272;18.558;2023-11-22T01:03:04;102010.16;;;-0.96;86.89
68807;BME280;55800;54.272;18.558;2023-11-22T01:05:34;102012.00;;;-0.92;86.68
68807;BME280;55800;54.272;18.558;2023-11-22T01:08:04;102012.91;;;-0.92;87.05
68807;BME280;55800;54.272;18.558;2023-11-22T01:10:35;102013.75;;;-0.91;87.17
68807;BME280;55800;54.272;18.558;2023-11-22T01:13:04;102008.59;;;-0.88;87.18
68807;BME280;55800;54.272;18.558;2023-11-22T01:15:34;102007.81;;;-0.86;87.31
68807;BME280;55800;54.272;18.558;2023-11-22T01:18:04;101996.50;;;-0.83;87.34
68807;BME280;55800;54.272;18.558;2023-11-22T01:20:34;101996.56;;;-0.80;87.83
68807;BME280;55800;54.272;18.558;2023-11-22T01:23:03;101994.00;;;-0.78;87.28
68807;BME280;55800;54.272;18.558;2023-11-22T01:25:34;101994.84;;;-0.78;87.24
68807;BME280;55800;54.272;18.558;2023-11-22T01:28:04;101994.94;;;-0.75;87.41
68807;BME280;55800;54.272;18.558;2023-11-22T01:30:34;101998.50;;;-0.73;87.41
68807;BME280;55800;54.272;18.558;2023-11-22T01:33:04;102004.69;;;-0.71;87.07
68807;BME280;55800;54.272;18.558;2023-11-22T01:35:33;102010.75;;;-0.72;87.26
68807;BME280;55800;54.272;18.558;2023-11-22T01:38:03;102013.47;;;-0.70;87.36
68807;BME280;55800;54.272;18.558;2023-11-22T01:40:34;102010.06;;;-0.66;87.44
68807;BME280;55800;54.272;18.558;2023-11-22T01:43:03;102009.31;;;-0.61;87.09
68807;BME280;55800;54.272;18.558;2023-11-22T01:45:33;102013.66;;;-0.61;86.88
68807;BME280;55800;54.272;18.558;2023-11-22T01:48:04;102012.88;;;-0.59;86.65
68807;BME280;55800;54.272;18.558;2023-11-22T01:50:33;102011.09;;;-0.60;86.86
68807;BME280;55800;54.272;18.558;2023-11-22T01:53:03;102006.75;;;-0.59;86.74
68807;BME280;55800;54.272;18.558;2023-11-22T01:55:35;102012.81;;;-0.62;87.24
68807;BME280;55800;54.272;18.558;2023-11-22T01:58:04;102017.25;;;-0.59;87.11
68807;BME280;55800;54.272;18.558;2023-11-22T02:00:45;102015.56;;;-0.57;87.21
68807;BME280;55800;54.272;18.558;2023-11-22T02:03:18;102019.09;;;-0.55;87.09
68807;BME280;55800;54.272;18.558;2023-11-22T02:05:48;102023.47;;;-0.56;87.38
68807;BME280;55800;54.272;18.558;2023-11-22T02:08:18;102017.41;;;-0.53;87.67
68807;BME280;55800;54.272;18.558;2023-11-22T02:10:59;102034.13;;;-0.50;87.78
68807;BME280;55800;54.272;18.558;2023-11-22T02:13:31;102036.91;;;-0.42;87.48
68807;BME280;55800;54.272;18.558;2023-11-22T02:16:00;102023.22;;;-0.31;87.36
68807;BME280;55800;54.272;18.558;2023-11-22T02:18:30;102031.00;;;-0.34;87.40
68807;BME280;55800;54.272;18.558;2023-11-22T02:21:01;102035.44;;;-0.33;87.39
68807;BME280;55800;54.272;18.558;2023-11-22T02:23:31;102036.25;;;-0.34;87.50
68807;BME280;55800;54.272;18.558;2023-11-22T02:26:01;102024.00;;;-0.35;87.63
68807;BME280;55800;54.272;18.558;2023-11-22T02:28:30;102031.94;;;-0.32;87.64
68807;BME280;55800;54.272;18.558;2023-11-22T02:31:00;102025.03;;;-0.28;87.45
68807;BME280;55800;54.272;18.558;2023-11-22T02:33:31;102013.63;;;-0.29;87.70
68807;BME280;55800;54.272;18.558;2023-11-22T02:36:01;102018.97;;;-0.26;87.52
68807;BME280;55800;54.272;18.558;2023-11-22T02:38:32;102024.25;;;-0.24;87.42
68807;BME280;55800;54.272;18.558;2023-11-22T02:41:03;102025.09;;;-0.25;87.60
68807;BME280;55800;54.272;18.558;2023-11-22T02:43:32;102035.69;;;-0.22;87.72
68807;BME280;55800;54.272;18.558;2023-11-22T02:46:01;102024.31;;;-0.21;87.65
68807;BME280;55800;54.272;18.558;2023-11-22T02:48:32;102024.41;;;-0.18;87.70
68807;BME280;55800;54.272;18.558;2023-11-22T02:51:01;102020.88;;;-0.19;87.42
68807;BME280;55800;54.272;18.558;2023-11-22T02:53:32;102030.56;;;-0.18;86.78
68807;BME280;55800;54.272;18.558;2023-11-22T02:56:02;102028.72;;;-0.20;87.30
68807;BME280;55800;54.272;18.558;2023-11-22T02:58:31;102031.34;;;-0.20;88.08
68807;BME280;55800;54.272;18.558;2023-11-22T03:01:01;102027.78;;;-0.24;87.83
68807;BME280;55800;54.272;18.558;2023-11-22T03:03:30;102035.66;;;-0.24;87.49
68807;BME280;55800;54.272;18.558;2023-11-22T03:06:00;102030.19;;;-0.31;87.20
68807;BME280;55800;54.272;18.558;2023-11-22T03:08:31;102036.25;;;-0.35;87.97
68807;BME280;55800;54.272;18.558;2023-11-22T03:11:01;102027.44;;;-0.37;88.01
68807;BME280;55800;54.272;18.558;2023-11-22T03:13:31;102016.91;;;-0.39;87.83
68807;BME280;55800;54.272;18.558;2023-11-22T03:16:01;102014.19;;;-0.40;88.08
68807;BME280;55800;54.272;18.558;2023-11-22T03:18:32;102007.19;;;-0.41;88.34
68807;BME280;55800;54.272;18.558;2023-11-22T03:21:01;102008.94;;;-0.40;88.32
68807;BME280;55800;54.272;18.558;2023-11-22T03:23:32;102016.81;;;-0.42;88.36
68807;BME280;55800;54.272;18.558;2023-11-22T03:26:01;102029.97;;;-0.40;88.24
68807;BME280;55800;54.272;18.558;2023-11-22T03:28:32;102018.59;;;-0.41;88.29
68807;BME280;55800;54.272;18.558;2023-11-22T03:31:18;102019.47;;;-0.40;88.32
68807;BME280;55800;54.272;18.558;2023-11-22T03:33:47;102024.69;;;-0.42;88.35
68807;BME280;55800;54.272;18.558;2023-11-22T03:36:16;102029.94;;;-0.42;88.44
68807;BME280;55800;54.272;18.558;2023-11-22T03:38:48;102029.00;;;-0.44;88.15
68807;BME280;55800;54.272;18.558;2023-11-22T03:41:17;102036.91;;;-0.44;87.92
68807;BME280;55800;54.272;18.558;2023-11-22T03:43:47;102035.06;;;-0.46;87.84
68807;BME280;55800;54.272;18.558;2023-11-22T03:46:16;102035.91;;;-0.49;88.06
68807;BME280;55800;54.272;18.558;2023-11-22T03:48:46;102044.63;;;-0.50;87.75
68807;BME280;55800;54.272;18.558;2023-11-22T03:51:15;102042.91;;;-0.49;87.27
68807;BME280;55800;54.272;18.558;2023-11-22T03:53:46;102042.00;;;-0.50;87.17
68807;BME280;55800;54.272;18.558;2023-11-22T03:56:15;102056.84;;;-0.52;87.31
68807;BME280;55800;54.272;18.558;2023-11-22T03:58:45;102072.56;;;-0.53;87.81
68807;BME280;55800;54.272;18.558;2023-11-22T04:01:14;102066.38;;;-0.55;87.66
68807;BME280;55800;54.272;18.558;2023-11-22T04:03:44;102069.94;;;-0.53;87.69
68807;BME280;55800;54.272;18.558;2023-11-22T04:06:14;102067.44;;;-0.49;87.71
68807;BME280;55800;54.272;18.558;2023-11-22T04:08:47;102075.25;;;-0.50;87.84
68807;BME280;55800;54.272;18.558;2023-11-22T04:11:16;102069.28;;;-0.45;87.83
68807;BME280;55800;54.272;18.558;2023-11-22T04:13:45;102074.59;;;-0.42;87.68
68807;BME280;55800;54.272;18.558;2023-11-22T04:16:15;102079.78;;;-0.45;88.09
68807;BME280;55800;54.272;18.558;2023-11-22T04:18:45;102093.00;;;-0.42;88.13
68807;BME280;55800;54.272;18.558;2023-11-22T04:21:15;102100.09;;;-0.38;88.14
68807;BME280;55800;54.272;18.558;2023-11-22T04:23:44;102087.06;;;-0.35;88.30
68807;BME280;55800;54.272;18.558;2023-11-22T04:26:15;102085.31;;;-0.34;88.53
68807;BME280;55800;54.272;18.558;2023-11-22T04:28:44;102080.19;;;-0.30;88.30
68807;BME280;55800;54.272;18.558;2023-11-22T04:31:14;102089.94;;;-0.26;88.41
68807;BME280;55800;54.272;18.558;2023-11-22T04:33:43;102086.47;;;-0.23;88.36
68807;BME280;55800;54.272;18.558;2023-11-22T04:36:13;102084.75;;;-0.21;88.57
68807;BME280;55800;54.272;18.558;2023-11-22T04:38:42;102083.16;;;-0.16;88.76
68807;BME280;55800;54.272;18.558;2023-11-22T04:41:11;102088.44;;;-0.15;88.90
68807;BME280;55800;54.272;18.558;2023-11-22T04:43:43;102076.28;;;-0.11;88.78
68807;BME280;55800;54.272;18.558;2023-11-22T04:46:13;102070.25;;;-0.06;88.59
68807;BME280;55800;54.272;18.558;2023-11-22T04:48:43;102059.06;;;0.03;87.94
68807;BME280;55800;54.272;18.558;2023-11-22T04:51:14;102058.28;;;0.06;88.08
68807;BME280;55800;54.272;18.558;2023-11-22T04:53:45;102062.66;;;0.07;88.17
68807;BME280;55800;54.272;18.558;2023-11-22T04:56:14;102068.84;;;0.09;88.04
68807;BME280;55800;54.272;18.558;2023-11-22T04:58:46;102067.09;;;0.08;88.12
68807;BME280;55800;54.272;18.558;2023-11-22T05:01:15;102067.00;;;0.05;88.35
68807;BME280;55800;54.272;18.558;2023-11-22T05:03:49;102062.66;;;0.07;88.14
68807;BME280;55800;54.272;18.558;2023-11-22T05:06:18;102082.06;;;0.12;88.87
68807;BME280;55800;54.272;18.558;2023-11-22T05:08:48;102071.69;;;0.18;88.78
68807;BME280;55800;54.272;18.558;2023-11-22T05:11:18;102072.63;;;0.20;88.61
68807;BME280;55800;54.272;18.558;2023-11-22T05:13:48;102071.03;;;0.28;88.07
68807;BME280;55800;54.272;18.558;2023-11-22T05:16:18;102064.00;;;0.25;88.05
68807;BME280;55800;54.272;18.558;2023-11-22T05:18:48;102066.69;;;0.28;87.97
68807;BME280;55800;54.272;18.558;2023-11-22T05:21:17;102060.59;;;0.31;87.99
68807;BME280;55800;54.272;18.558;2023-11-22T05:23:47;102058.88;;;0.31;87.63
68807;BME280;55800;54.272;18.558;2023-11-22T05:26:16;102058.78;;;0.28;87.97
68807;BME280;55800;54.272;18.558;2023-11-22T05:28:48;102071.13;;;0.31;87.70
68807;BME280;55800;54.272;18.558;2023-11-22T05:31:17;102057.06;;;0.29;87.66
68807;BME280;55800;54.272;18.558;2023-11-22T05:33:46;102058.81;;;0.30;87.78
68807;BME280;55800;54.272;18.558;2023-11-22T05:36:16;102065.03;;;0.32;87.79
68807;BME280;55800;54.272;18.558;2023-11-22T05:38:45;102069.34;;;0.30;87.60
68807;BME280;55800;54.272;18.558;2023-11-22T05:41:15;102080.75;;;0.30;87.74
68807;BME280;55800;54.272;18.558;2023-11-22T05:43:44;102079.00;;;0.29;87.84
68807;BME280;55800;54.272;18.558;2023-11-22T05:46:15;102073.78;;;0.32;87.79
68807;BME280;55800;54.272;18.558;2023-11-22T05:48:49;102078.13;;;0.30;87.91
68807;BME280;55800;54.272;18.558;2023-11-22T05:51:19;102070.22;;;0.30;87.58
68807;BME280;55800;54.272;18.558;2023-11-22T05:53:48;102069.28;;;0.27;87.88
68807;BME280;55800;54.272;18.558;2023-11-22T05:56:17;102078.00;;;0.26;87.86
68807;BME280;55800;54.272;18.558;2023-11-22T05:58:47;102087.72;;;0.28;88.02
68807;BME280;55800;54.272;18.558;2023-11-22T06:01:18;102078.91;;;0.26;87.61
68807;BME280;55800;54.272;18.558;2023-11-22T06:03:47;102088.47;;;0.23;87.82
68807;BME280;55800;54.272;18.558;2023-11-22T06:06:17;102091.94;;;0.22;88.23
68807;BME280;55800;54.272;18.558;2023-11-22T06:08:50;102092.34;;;0.01;88.28
68807;BME280;55800;54.272;18.558;2023-11-22T06:11:19;102083.91;;;-0.22;88.68
68807;BME280;55800;54.272;18.558;2023-11-22T06:13:49;102081.84;;;-0.32;88.77
68807;BME280;55800;54.272;18.558;2023-11-22T06:16:19;102089.56;;;-0.39;89.02
68807;BME280;55800;54.272;18.558;2023-11-22T06:18:49;102092.06;;;-0.44;89.55
68807;BME280;55800;54.272;18.558;2023-11-22T06:21:19;102096.25;;;-0.52;89.85
68807;BME280;55800;54.272;18.558;2023-11-22T06:23:49;102092.69;;;-0.54;89.81
68807;BME280;55800;54.272;18.558;2023-11-22T06:26:18;102102.25;;;-0.56;90.00
68807;BME280;55800;54.272;18.558;2023-11-22T06:28:48;102105.72;;;-0.57;89.88
68807;BME280;55800;54.272;18.558;2023-11-22T06:31:18;102106.50;;;-0.61;90.28
68807;BME280;55800;54.272;18.558;2023-11-22T06:33:48;102111.56;;;-0.68;90.73
68807;BME280;55800;54.272;18.558;2023-11-22T06:36:17;102113.41;;;-0.64;91.02
68807;BME280;55800;54.272;18.558;2023-11-22T06:38:48;102110.75;;;-0.66;90.54
68807;BME280;55800;54.272;18.558;2023-11-22T06:41:17;102121.16;;;-0.69;91.39
68807;BME280;55800;54.272;18.558;2023-11-22T06:43:49;102122.84;;;-0.71;91.06
68807;BME280;55800;54.272;18.558;2023-11-22T06:46:20;102121.97;;;-0.71;91.34
68807;BME280;55800;54.272;18.558;2023-11-22T06:48:51;102123.69;;;-0.72;91.50
68807;BME280;55800;54.272;18.558;2023-11-22T06:51:21;102127.22;;;-0.71;91.39
68807;BME280;55800;54.272;18.558;2023-11-22T06:53:51;102132.47;;;-0.71;91.48
68807;BME280;55800;54.272;18.558;2023-11-22T06:56:25;102142.00;;;-0.75;91.53
68807;BME280;55800;54.272;18.558;2023-11-22T06:58:55;102134.94;;;-0.76;91.78
68807;BME280;55800;54.272;18.558;2023-11-22T07:01:26;102149.00;;;-0.74;92.42
68807;BME280;55800;54.272;18.558;2023-11-22T07:03:56;102142.03;;;-0.73;92.35
68807;BME280;55800;54.272;18.558;2023-11-22T07:06:27;102143.97;;;-0.68;92.22
68807;BME280;55800;54.272;18.558;2023-11-22T07:08:56;102159.72;;;-0.68;92.34
68807;BME280;55800;54.272;18.558;2023-11-22T07:11:26;102156.13;;;-0.70;92.67
68807;BME280;55800;54.272;18.558;2023-11-22T07:13:59;102154.41;;;-0.69;92.52
68807;BME280;55800;54.272;18.558;2023-11-22T07:16:29;102157.16;;;-0.65;92.46
68807;BME280;55800;54.272;18.558;2023-11-22T07:18:59;102154.63;;;-0.62;92.87
68807;BME280;55800;54.272;18.558;2023-11-22T07:21:30;102162.72;;;-0.54;93.06
68807;BME280;55800;54.272;18.558;2023-11-22T07:24:00;102161.03;;;-0.51;93.24
68807;BME280;55800;54.272;18.558;2023-11-22T07:26:29;102157.50;;;-0.53;93.53
68807;BME280;55800;54.272;18.558;2023-11-22T07:28:59;102164.69;;;-0.46;93.90
68807;BME280;55800;54.272;18.558;2023-11-22T07:31:31;102152.53;;;-0.42;93.95
68807;BME280;55800;54.272;18.558;2023-11-22T07:34:01;102155.28;;;-0.38;94.16
68807;BME280;55800;54.272;18.558;2023-11-22T07:36:30;102166.13;;;-0.26;94.43
68807;BME280;55800;54.272;18.558;2023-11-22T07:39:00;102162.59;;;-0.28;93.78
68807;BME280;55800;54.272;18.558;2023-11-22T07:41:30;102169.69;;;-0.24;93.84
68807;BME280;55800;54.272;18.558;2023-11-22T07:44:04;102168.22;;;-0.13;94.38
68807;BME280;55800;54.272;18.558;2023-11-22T07:46:34;102160.44;;;-0.08;94.46
68807;BME280;55800;54.272;18.558;2023-11-22T07:49:05;102176.44;;;-0.01;95.02
68807;BME280;55800;54.272;18.558;2023-11-22T07:51:35;102167.03;;;0.09;95.48
68807;BME280;55800;54.272;18.558;2023-11-22T07:54:05;102160.19;;;0.16;96.03
68807;BME280;55800;54.272;18.558;2023-11-22T07:56:34;102151.63;;;0.24;96.62
68807;BME280;55800;54.272;18.558;2023-11-22T07:59:05;102144.78;;;0.31;96.66
68807;BME280;55800;54.272;18.558;2023-11-22T08:01:35;102136.22;;;0.39;97.01
68807;BME280;55800;54.272;18.558;2023-11-22T08:04:06;102132.91;;;0.48;97.70
68807;BME280;55800;54.272;18.558;2023-11-22T08:06:37;102148.78;;;0.51;98.09
68807;BME280;55800;54.272;18.558;2023-11-22T08:09:08;102149.78;;;0.57;97.70
68807;BME280;55800;54.272;18.558;2023-11-22T08:11:37;102147.25;;;0.62;97.58
68807;BME280;55800;54.272;18.558;2023-11-22T08:14:10;102143.84;;;0.66;97.28
68807;BME280;55800;54.272;18.558;2023-11-22T08:16:43;102152.75;;;0.71;96.93
68807;BME280;55800;54.272;18.558;2023-11-22T08:19:14;102149.31;;;0.75;96.39
68807;BME280;55800;54.272;18.558;2023-11-22T08:21:44;102148.38;;;0.71;96.24
68807;BME280;55800;54.272;18.558;2023-11-22T08:24:13;102155.38;;;0.71;96.28
68807;BME280;55800;54.272;18.558;2023-11-22T08:26:42;102166.94;;;0.77;96.05
68807;BME280;55800;54.272;18.558;2023-11-22T08:29:13;102166.94;;;0.79;95.78
68807;BME280;55800;54.272;18.558;2023-11-22T08:31:45;102159.13;;;0.82;95.65
68807;BME280;55800;54.272;18.558;2023-11-22T08:34:19;102146.91;;;0.86;95.81
68807;BME280;55800;54.272;18.558;2023-11-22T08:36:48;102156.63;;;0.88;95.51
68807;BME280;55800;54.272;18.558;2023-11-22T08:39:17;102154.09;;;0.91;95.83
68807;BME280;55800;54.272;18.558;2023-11-22T08:41:46;102156.75;;;0.93;95.82
68807;BME280;55800;54.272;18.558;2023-11-22T08:44:18;102157.69;;;0.96;95.58
68807;BME280;55800;54.272;18.558;2023-11-22T08:46:54;102152.44;;;0.98;95.35
68807;BME280;55800;54.272;18.558;2023-11-22T08:49:24;102156.06;;;1.03;95.32
68807;BME280;55800;54.272;18.558;2023-11-22T08:51:53;102152.59;;;1.04;95.28
68807;BME280;55800;54.272;18.558;2023-11-22T08:54:23;102147.34;;;1.05;95.43
68807;BME280;55800;54.272;18.558;2023-11-22T08:56:52;102143.91;;;1.09;95.52
68807;BME280;55800;54.272;18.558;2023-11-22T08:59:24;102138.69;;;1.11;95.46
68807;BME280;55800;54.272;18.558;2023-11-22T09:01:55;102129.13;;;1.14;95.68
68807;BME280;55800;54.272;18.558;2023-11-22T09:04:25;102138.78;;;1.17;95.61
68807;BME280;55800;54.272;18.558;2023-11-22T09:06:55;102145.03;;;1.20;95.66
68807;BME280;55800;54.272;18.558;2023-11-22T09:09:25;102151.25;;;1.24;95.62
68807;BME280;55800;54.272;18.558;2023-11-22T09:11:59;102145.22;;;1.29;95.69
68807;BME280;55800;54.272;18.558;2023-11-22T09:14:28;102142.59;;;1.29;95.47
68807;BME280;55800;54.272;18.558;2023-11-22T09:16:59;102141.72;;;1.30;95.44
68807;BME280;55800;54.272;18.558;2023-11-22T09:19:29;102140.00;;;1.32;95.68
68807;BME280;55800;54.272;18.558;2023-11-22T09:21:59;102140.19;;;1.40;95.87
68807;BME280;55800;54.272;18.558;2023-11-22T09:24:28;102136.75;;;1.45;95.89
68807;BME280;55800;54.272;18.558;2023-11-22T09:26:57;102132.47;;;1.50;95.87
68807;BME280;55800;54.272;18.558;2023-11-22T09:29:28;102114.97;;;1.55;95.67
68807;BME280;55800;54.272;18.558;2023-11-22T09:31:59;102113.31;;;1.61;95.33
68807;BME280;55800;54.272;18.558;2023-11-22T09:34:30;102116.88;;;1.63;95.56
68807;BME280;55800;54.272;18.558;2023-11-22T09:36:59;102117.88;;;1.71;95.77
68807;BME280;55800;54.272;18.558;2023-11-22T09:39:28;102119.78;;;1.78;95.77
68807;BME280;55800;54.272;18.558;2023-11-22T09:41:58;102128.72;;;1.86;95.79
68807;BME280;55800;54.272;18.558;2023-11-22T09:44:27;102127.84;;;1.87;95.60
68807;BME280;55800;54.272;18.558;2023-11-22T09:46:58;102127.00;;;1.89;95.52
68807;BME280;55800;54.272;18.558;2023-11-22T09:49:29;102128.00;;;1.96;95.89
68807;BME280;55800;54.272;18.558;2023-11-22T09:52:02;102135.25;;;2.09;95.66
68807;BME280;55800;54.272;18.558;2023-11-22T09:54:34;102131.03;;;2.18;95.15
68807;BME280;55800;54.272;18.558;2023-11-22T09:57:05;102130.16;;;2.19;95.23
68807;BME280;55800;54.272;18.558;2023-11-22T09:59:37;102130.25;;;2.25;95.52
68807;BME280;55800;54.272;18.558;2023-11-22T10:02:09;102138.25;;;2.30;95.37
68807;BME280;55800;54.272;18.558;2023-11-22T10:04:40;102145.44;;;2.40;95.26
68807;BME280;55800;54.272;18.558;2023-11-22T10:07:10;102145.56;;;2.48;95.18
68807;BME280;55800;54.272;18.558;2023-11-22T10:09:39;102141.28;;;2.56;94.83
68807;BME280;55800;54.272;18.558;2023-11-22T10:12:10;102139.63;;;2.61;94.74
68807;BME280;55800;54.272;18.558;2023-11-22T10:14:41;102129.09;;;2.64;94.99
68807;BME280;55800;54.272;18.558;2023-11-22T10:17:11;102118.59;;;2.70;95.00
68807;BME280;55800;54.272;18.558;2023-11-22T10:19:43;102115.19;;;2.77;94.84
68807;BME280;55800;54.272;18.558;2023-11-22T10:22:12;102105.63;;;2.86;94.46
68807;BME280;55800;54.272;18.558;2023-11-22T10:24:46;102111.88;;;2.93;94.46
68807;BME280;55800;54.272;18.558;2023-11-22T10:27:15;102112.81;;;2.98;94.46
68807;BME280;55800;54.272;18.558;2023-11-22T10:29:48;102111.16;;;3.04;94.21
68807;BME280;55800;54.272;18.558;2023-11-22T10:32:18;102108.66;;;3.15;93.88
68807;BME280;55800;54.272;18.558;2023-11-22T10:34:48;102112.25;;;3.20;93.70
68807;BME280;55800;54.272;18.558;2023-11-22T10:37:19;102110.50;;;3.25;93.40
68807;BME280;55800;54.272;18.558;2023-11-22T10:39:51;102105.34;;;3.34;92.99
68807;BME280;55800;54.272;18.558;2023-11-22T10:42:21;102098.38;;;3.39;93.15
68807;BME280;55800;54.272;18.558;2023-11-22T10:44:54;102082.56;;;3.47;93.10
68807;BME280;55800;54.272;18.558;2023-11-22T10:47:27;102085.28;;;3.54;92.73
68807;BME280;55800;54.272;18.558;2023-11-22T10:49:58;102080.06;;;3.62;92.82
68807;BME280;55800;54.272;18.558;2023-11-22T10:52:30;102079.28;;;3.72;92.62
68807;BME280;55800;54.272;18.558;2023-11-22T10:55:04;102078.53;;;3.83;92.07
68807;BME280;55800;54.272;18.558;2023-11-22T10:57:40;102089.16;;;3.88;91.85
68807;BME280;55800;54.272;18.558;2023-11-22T11:00:15;102083.91;;;3.94;91.82
68807;BME280;55800;54.272;18.558;2023-11-22T11:02:53;102098.16;;;4.14;93.52
68807;BME280;55800;54.272;18.558;2023-11-22T11:05:30;102097.28;;;4.11;92.64
68807;BME280;55800;54.272;18.558;2023-11-22T11:08:02;102099.06;;;4.16;90.62
68807;BME280;55800;54.272;18.558;2023-11-22T11:10:39;102104.38;;;4.18;90.55
68807;BME280;55800;54.272;18.558;2023-11-22T11:13:09;102092.00;;;4.17;89.99
68807;BME280;55800;54.272;18.558;2023-11-22T11:15:41;102099.97;;;4.18;91.48
68807;BME280;55800;54.272;18.558;2023-11-22T11:18:14;102113.22;;;4.20;90.45
68807;BME280;55800;54.272;18.558;2023-11-22T11:20:49;102099.97;;;4.18;90.40
68807;BME280;55800;54.272;18.558;2023-11-22T11:23:20;102116.72;;;4.17;91.06
68807;BME280;55800;54.272;18.558;2023-11-22T11:25:52;102099.91;;;4.14;89.33
68807;BME280;55800;54.272;18.558;2023-11-22T11:28:22;102108.75;;;4.13;89.47
68807;BME280;55800;54.272;18.558;2023-11-22T11:30:54;102108.72;;;4.08;89.97
68807;BME280;55800;54.272;18.558;2023-11-22T11:33:32;102102.56;;;4.09;89.48
68807;BME280;55800;54.272;18.558;2023-11-22T11:36:03;102093.72;;;4.09;89.67
68807;BME280;55800;54.272;18.558;2023-11-22T11:38:35;102099.03;;;4.10;90.17
68807;BME280;55800;54.272;18.558;2023-11-22T11:41:10;102091.06;;;4.10;89.25
68807;BME280;55800;54.272;18.558;2023-11-22T11:43:40;102087.56;;;4.11;89.33
68807;BME280;55800;54.272;18.558;2023-11-22T11:46:10;102080.50;;;4.10;89.16
68807;BME280;55800;54.272;18.558;2023-11-22T11:48:44;102059.31;;;4.07;88.90
68807;BME280;55800;54.272;18.558;2023-11-22T11:51:14;102064.63;;;4.10;89.64
68807;BME280;55800;54.272;18.558;2023-11-22T11:53:45;102066.41;;;4.11;89.86
68807;BME280;55800;54.272;18.558;2023-11-22T11:56:15;102072.53;;;4.07;90.64
68807;BME280;55800;54.272;18.558;2023-11-22T11:58:47;102086.63;;;4.08;89.96
68807;BME280;55800;54.272;18.558;2023-11-22T12:01:18;102076.09;;;4.09;90.44
68807;BME280;55800;54.272;18.558;2023-11-22T12:03:50;102071.69;;;4.13;88.82
68807;BME280;55800;54.272;18.558;2023-11-22T12:06:21;102067.34;;;4.18;89.01
68807;BME280;55800;54.272;18.558;2023-11-22T12:08:51;102071.75;;;4.19;89.14
68807;BME280;55800;54.272;18.558;2023-11-22T12:11:21;102072.59;;;4.16;90.02
68807;BME280;55800;54.272;18.558;2023-11-22T12:13:50;102057.66;;;4.21;89.15
68807;BME280;55800;54.272;18.558;2023-11-22T12:16:21;102061.19;;;4.23;87.96
68807;BME280;55800;54.272;18.558;2023-11-22T12:18:51;102055.88;;;4.23;88.35
68807;BME280;55800;54.272;18.558;2023-11-22T12:21:21;102052.38;;;4.26;88.41
68807;BME280;55800;54.272;18.558;2023-11-22T12:23:51;102046.19;;;4.24;88.34
68807;BME280;55800;54.272;18.558;2023-11-22T12:26:20;102038.28;;;4.28;88.04
68807;BME280;55800;54.272;18.558;2023-11-22T12:28:50;102042.69;;;4.28;87.91
68807;BME280;55800;54.272;18.558;2023-11-22T12:31:33;102044.44;;;4.26;88.14
68807;BME280;55800;54.272;18.558;2023-11-22T12:34:05;102059.47;;;4.28;88.05
68807;BME280;55800;54.272;18.558;2023-11-22T12:36:35;102068.25;;;4.26;87.71
68807;BME280;55800;54.272;18.558;2023-11-22T12:39:06;102070.03;;;4.25;88.35
68807;BME280;55800;54.272;18.558;2023-11-22T12:41:41;102054.09;;;4.22;87.19
68807;BME280;55800;54.272;18.558;2023-11-22T12:44:10;102051.47;;;4.21;87.75
68807;BME280;55800;54.272;18.558;2023-11-22T12:46:47;102043.50;;;4.19;88.22
68807;BME280;55800;54.272;18.558;2023-11-22T12:49:19;102024.09;;;4.17;88.20
68807;BME280;55800;54.272;18.558;2023-11-22T12:51:49;102008.19;;;4.14;88.19
68807;BME280;55800;54.272;18.558;2023-11-22T12:54:19;102015.22;;;4.09;89.39
68807;BME280;55800;54.272;18.558;2023-11-22T12:56:50;102009.88;;;4.05;89.23
68807;BME280;55800;54.272;18.558;2023-11-22T12:59:22;102011.69;;;4.07;87.59
68807;BME280;55800;54.272;18.558;2023-11-22T13:01:51;102016.03;;;4.05;88.36